sensor_id;sensor_type;location;lat;lon;timestamp;pressure;altitude;pressure_sealevel;temperature;humidity
39265;BME280;42646;51.910;7.724;2023-03-26T00:02:25;100019.59;;;7.94;100.00
39265;BME280;42646;51.910;7.724;2023-03-26T00:04:56;100029.34;;;7.93;100.00
39265;BME280;42646;51.910;7.724;2023-03-26T00:07:23;100034.34;;;7.87;100.00
39265;BME280;42646;51.910;7.724;2023-03-26T00:09:53;100036.31;;;7.85;100.00
39265;BME280;42646;51.910;7.724;2023-03-26T00:12:24;100043.56;;;7.83;100.00
39265;BME280;42646;51.910;7.724;2023-03-26T00:14:51;100040.06;;;7.82;100.00
39265;BME280;42646;51.910;7.724;2023-03-26T00:17:26;100048.28;;;7.79;100.00
39265;BME280;42646;51.910;7.724;2023-03-26T00:19:55;100048.28;;;7.79;100.00
39265;BME280;42646;51.910;7.724;2023-03-26T00:22:25;100045.50;;;7.81;100.00
39265;BME280;42646;51.910;7.724;2023-03-26T00:24:52;100043.81;;;7.80;100.00
39265;BME280;42646;51.910;7.724;2023-03-26T00:27:23;100043.69;;;7.81;100.00
39265;BME280;42646;51.910;7.724;2023-03-26T00:29:53;100045.50;;;7.81;100.00
39265;BME280;42646;51.910;7.724;2023-03-26T00:32:22;100056.09;;;7.81;100.00
39265;BME280;42646;51.910;7.724;2023-03-26T00:35:19;100054.56;;;7.78;100.00
39265;BME280;42646;51.910;7.724;2023-03-26T00:37:48;100056.22;;;7.79;100.00
39265;BME280;42646;51.910;7.724;2023-03-26T00:40:17;100055.00;;;7.83;100.00
39265;BME280;42646;51.910;7.724;2023-03-26T00:42:44;100054.28;;;7.81;100.00
39265;BME280;42646;51.910;7.724;2023-03-26T00:45:14;100051.75;;;7.80;100.00
39265;BME280;42646;51.910;7.724;2023-03-26T00:47:46;100049.94;;;7.80;100.00
39265;BME280;42646;51.910;7.724;2023-03-26T00:50:15;100048.28;;;7.79;100.00
39265;BME280;42646;51.910;7.724;2023-03-26T00:52:45;100050.78;;;7.81;100.00
39265;BME280;42646;51.910;7.724;2023-03-26T00:55:13;100056.09;;;7.81;100.00
39265;BME280;42646;51.910;7.724;2023-03-26T00:57:41;100052.75;;;7.79;100.00
39265;BME280;42646;51.910;7.724;2023-03-26T01:00:14;100047.44;;;7.79;100.00
39265;BME280;42646;51.910;7.724;2023-03-26T01:02:42;100048.28;;;7.79;100.00
39265;BME280;42646;51.910;7.724;2023-03-26T01:05:39;100040.91;;;7.83;100.00
39265;BME280;42646;51.910;7.724;2023-03-26T01:08:18;100042.97;;;7.79;100.00
39265;BME280;42646;51.910;7.724;2023-03-26T01:10:49;100038.66;;;7.78;100.00
39265;BME280;42646;51.910;7.724;2023-03-26T01:13:18;100024.59;;;7.78;100.00
39265;BME280;42646;51.910;7.724;2023-03-26T01:15:48;100022.78;;;7.78;100.00
39265;BME280;42646;51.910;7.724;2023-03-26T01:18:18;100023.63;;;7.79;100.00
39265;BME280;42646;51.910;7.724;2023-03-26T01:20:48;100025.44;;;7.78;100.00
39265;BME280;42646;51.910;7.724;2023-03-26T01:23:22;100019.84;;;7.81;100.00
39265;BME280;42646;51.910;7.724;2023-03-26T01:26:37;100024.31;;;7.81;100.00
39265;BME280;42646;51.910;7.724;2023-03-26T01:29:12;100020.00;;;7.80;100.00
39265;BME280;42646;51.910;7.724;2023-03-26T01:31:50;100014.84;;;7.78;100.00
39265;BME280;42646;51.910;7.724;2023-03-26T01:34:25;100017.47;;;7.78;100.00
39265;BME280;42646;51.910;7.724;2023-03-26T01:37:02;100020.97;;;7.79;100.00
39265;BME280;42646;51.910;7.724;2023-03-26T01:39:41;100012.19;;;7.78;100.00
39265;BME280;42646;51.910;7.724;2023-03-26T01:42:21;100008.72;;;7.78;100.00
39265;BME280;42646;51.910;7.724;2023-03-26T01:44:55;100008.72;;;7.78;100.00
39265;BME280;42646;51.910;7.724;2023-03-26T01:47:24;100005.91;;;7.79;100.00
39265;BME280;42646;51.910;7.724;2023-03-26T01:49:53;100005.78;;;7.81;100.00
39265;BME280;42646;51.910;7.724;2023-03-26T01:52:22;100004.78;;;7.82;100.00
39265;BME280;42646;51.910;7.724;2023-03-26T01:54:52;99997.69;;;7.82;100.00
39265;BME280;42646;51.910;7.724;2023-03-26T01:57:32;99998.53;;;7.83;100.00
39265;BME280;42646;51.910;7.724;2023-03-26T02:00:17;100000.34;;;7.82;100.00
39265;BME280;42646;51.910;7.724;2023-03-26T02:02:58;99992.28;;;7.84;100.00
39265;BME280;42646;51.910;7.724;2023-03-26T02:05:32;99987.81;;;7.84;100.00
39265;BME280;42646;51.910;7.724;2023-03-26T02:08:04;99981.53;;;7.85;100.00
39265;BME280;42646;51.910;7.724;2023-03-26T02:10:38;99984.88;;;7.87;100.00
39265;BME280;42646;51.910;7.724;2023-03-26T02:13:08;99984.88;;;7.87;100.00
39265;BME280;42646;51.910;7.724;2023-03-26T02:15:36;99974.28;;;7.87;100.00
39265;BME280;42646;51.910;7.724;2023-03-26T02:18:04;99970.66;;;7.88;100.00
39265;BME280;42646;51.910;7.724;2023-03-26T02:20:36;99976.81;;;7.89;100.00
39265;BME280;42646;51.910;7.724;2023-03-26T02:23:04;99967.06;;;7.89;100.00
39265;BME280;42646;51.910;7.724;2023-03-26T02:25:32;99967.88;;;7.90;100.00
39265;BME280;42646;51.910;7.724;2023-03-26T02:28:01;99963.44;;;7.90;100.00
39265;BME280;42646;51.910;7.724;2023-03-26T02:30:31;99956.31;;;7.91;100.00
39265;BME280;42646;51.910;7.724;2023-03-26T02:32:59;99955.47;;;7.90;100.00
39265;BME280;42646;51.910;7.724;2023-03-26T02:35:37;99957.16;;;7.91;100.00
39265;BME280;42646;51.910;7.724;2023-03-26T02:38:06;99946.69;;;7.90;100.00
39265;BME280;42646;51.910;7.724;2023-03-26T02:40:36;99943.06;;;7.91;100.00
39265;BME280;42646;51.910;7.724;2023-03-26T02:43:04;99945.72;;;7.91;100.00
39265;BME280;42646;51.910;7.724;2023-03-26T02:45:34;99943.06;;;7.91;100.00
39265;BME280;42646;51.910;7.724;2023-03-26T02:48:05;99941.41;;;7.90;100.00
39265;BME280;42646;51.910;7.724;2023-03-26T02:50:39;99946.56;;;7.91;100.00
39265;BME280;42646;51.910;7.724;2023-03-26T02:53:25;99942.09;;;7.92;100.00
39265;BME280;42646;51.910;7.724;2023-03-26T02:56:15;99934.16;;;7.92;100.00
39265;BME280;42646;51.910;7.724;2023-03-26T02:58:56;99931.50;;;7.92;100.00
39265;BME280;42646;51.910;7.724;2023-03-26T03:01:27;99940.28;;;7.92;100.00
39265;BME280;42646;51.910;7.724;2023-03-26T03:03:57;99936.66;;;7.93;100.00
39265;BME280;42646;51.910;7.724;2023-03-26T03:06:33;99923.41;;;7.93;100.00
39265;BME280;42646;51.910;7.724;2023-03-26T03:09:04;99927.59;;;7.96;100.00
39265;BME280;42646;51.910;7.724;2023-03-26T03:11:51;99925.78;;;7.96;100.00
39265;BME280;42646;51.910;7.724;2023-03-26T03:14:19;99923.16;;;7.96;100.00
39265;BME280;42646;51.910;7.724;2023-03-26T03:16:49;99922.00;;;7.99;100.00
39265;BME280;42646;51.910;7.724;2023-03-26T03:19:16;99918.38;;;8.00;100.00
39265;BME280;42646;51.910;7.724;2023-03-26T03:21:46;99915.72;;;8.00;100.00
39265;BME280;42646;51.910;7.724;2023-03-26T03:24:13;99910.31;;;8.01;100.00
39265;BME280;42646;51.910;7.724;2023-03-26T03:26:46;99915.47;;;8.03;100.00
39265;BME280;42646;51.910;7.724;2023-03-26T03:29:29;99912.53;;;8.06;100.00
39265;BME280;42646;51.910;7.724;2023-03-26T03:32:07;99915.31;;;8.04;100.00
39265;BME280;42646;51.910;7.724;2023-03-26T03:34:41;99910.03;;;8.04;100.00
39265;BME280;42646;51.910;7.724;2023-03-26T03:37:09;99908.22;;;8.05;100.00
39265;BME280;42646;51.910;7.724;2023-03-26T03:39:44;99898.19;;;8.09;100.00
39265;BME280;42646;51.910;7.724;2023-03-26T03:42:17;99898.44;;;8.06;100.00
39265;BME280;42646;51.910;7.724;2023-03-26T03:44:49;99900.97;;;8.07;100.00
39265;BME280;42646;51.910;7.724;2023-03-26T03:47:38;99894.84;;;8.07;100.00
39265;BME280;42646;51.910;7.724;2023-03-26T03:50:07;99892.06;;;8.08;100.00
39265;BME280;42646;51.910;7.724;2023-03-26T03:53:01;99889.41;;;8.08;100.00
39265;BME280;42646;51.910;7.724;2023-03-26T03:55:39;99889.25;;;8.10;100.00
39265;BME280;42646;51.910;7.724;2023-03-26T03:58:07;99886.59;;;8.10;100.00
39265;BME280;42646;51.910;7.724;2023-03-26T04:01:01;99881.31;;;8.10;100.00
39265;BME280;42646;51.910;7.724;2023-03-26T04:03:54;99877.69;;;8.11;100.00
39265;BME280;42646;51.910;7.724;2023-03-26T04:06:28;99874.19;;;8.10;100.00
39265;BME280;42646;51.910;7.724;2023-03-26T04:08:57;99873.22;;;8.11;100.00
39265;BME280;42646;51.910;7.724;2023-03-26T04:11:25;99879.50;;;8.10;100.00
39265;BME280;42646;51.910;7.724;2023-03-26T04:14:25;99867.22;;;8.09;100.00
39265;BME280;42646;51.910;7.724;2023-03-26T04:17:02;99871.84;;;8.07;100.00
39265;BME280;42646;51.910;7.724;2023-03-26T04:19:36;99871.84;;;8.07;100.00
39265;BME280;42646;51.910;7.724;2023-03-26T04:22:06;99867.38;;;8.08;100.00
39265;BME280;42646;51.910;7.724;2023-03-26T04:24:45;99860.25;;;8.08;100.00
39265;BME280;42646;51.910;7.724;2023-03-26T04:27:15;99860.41;;;8.07;100.00
39265;BME280;42646;51.910;7.724;2023-03-26T04:29:47;99861.38;;;8.06;100.00
39265;BME280;42646;51.910;7.724;2023-03-26T04:32:22;99854.25;;;8.06;100.00
39265;BME280;42646;51.910;7.724;2023-03-26T04:34:54;99857.03;;;8.04;100.00
39265;BME280;42646;51.910;7.724;2023-03-26T04:37:29;99856.06;;;8.06;100.00
39265;BME280;42646;51.910;7.724;2023-03-26T04:40:12;99854.41;;;8.04;100.00
39265;BME280;42646;51.910;7.724;2023-03-26T04:42:57;99857.34;;;8.01;100.00
39265;BME280;42646;51.910;7.724;2023-03-26T04:45:45;99852.16;;;8.00;100.00
39265;BME280;42646;51.910;7.724;2023-03-26T04:48:14;99851.34;;;7.99;100.00
39265;BME280;42646;51.910;7.724;2023-03-26T04:50:44;99847.59;;;8.02;100.00
39265;BME280;42646;51.910;7.724;2023-03-26T04:53:15;99839.78;;;8.00;100.00
39265;BME280;42646;51.910;7.724;2023-03-26T04:55:50;99833.63;;;8.00;100.00
39265;BME280;42646;51.910;7.724;2023-03-26T04:58:41;99828.47;;;7.98;100.00
39265;BME280;42646;51.910;7.724;2023-03-26T05:01:10;99827.50;;;7.99;100.00
39265;BME280;42646;51.910;7.724;2023-03-26T05:03:42;99828.06;;;8.03;100.00
39265;BME280;42646;51.910;7.724;2023-03-26T05:06:14;99823.03;;;8.00;100.00
39265;BME280;42646;51.910;7.724;2023-03-26T05:09:09;99828.47;;;7.98;100.00
39265;BME280;42646;51.910;7.724;2023-03-26T05:12:06;99825.97;;;7.97;100.00
39265;BME280;42646;51.910;7.724;2023-03-26T05:14:46;99821.38;;;7.99;100.00
39265;BME280;42646;51.910;7.724;2023-03-26T05:17:21;99820.53;;;7.98;100.00
39265;BME280;42646;51.910;7.724;2023-03-26T05:19:53;99805.63;;;7.97;100.00
39265;BME280;42646;51.910;7.724;2023-03-26T05:22:25;99806.47;;;7.98;100.00
39265;BME280;42646;51.910;7.724;2023-03-26T05:25:14;99799.34;;;7.98;100.00
39265;BME280;42646;51.910;7.724;2023-03-26T05:27:43;99802.81;;;7.99;100.00
39265;BME280;42646;51.910;7.724;2023-03-26T05:30:38;99805.47;;;7.99;100.00
39265;BME280;42646;51.910;7.724;2023-03-26T05:33:09;99795.72;;;7.99;100.00
39265;BME280;42646;51.910;7.724;2023-03-26T05:35:44;99792.22;;;7.99;100.00
39265;BME280;42646;51.910;7.724;2023-03-26T05:38:16;99793.06;;;7.99;100.00
39265;BME280;42646;51.910;7.724;2023-03-26T05:40:43;99793.91;;;8.00;100.00
39265;BME280;42646;51.910;7.724;2023-03-26T05:43:16;99790.41;;;7.99;100.00
39265;BME280;42646;51.910;7.724;2023-03-26T05:45:48;99788.59;;;8.00;100.00
39265;BME280;42646;51.910;7.724;2023-03-26T05:48:26;99785.13;;;7.99;100.00
39265;BME280;42646;51.910;7.724;2023-03-26T05:50:55;99785.94;;;8.00;100.00
39265;BME280;42646;51.910;7.724;2023-03-26T05:53:27;99783.47;;;7.98;100.00
39265;BME280;42646;51.910;7.724;2023-03-26T05:56:16;99779.00;;;7.99;100.00
39265;BME280;42646;51.910;7.724;2023-03-26T05:59:14;99775.50;;;7.98;100.00
39265;BME280;42646;51.910;7.724;2023-03-26T06:02:00;99771.88;;;7.99;100.00
39265;BME280;42646;51.910;7.724;2023-03-26T06:04:47;99772.88;;;7.98;100.00
39265;BME280;42646;51.910;7.724;2023-03-26T06:07:40;99768.41;;;7.99;100.00
39265;BME280;42646;51.910;7.724;2023-03-26T06:10:15;99763.94;;;7.99;100.00
39265;BME280;42646;51.910;7.724;2023-03-26T06:12:45;99762.97;;;8.00;100.00
39265;BME280;42646;51.910;7.724;2023-03-26T06:15:38;99762.97;;;8.00;100.00
39265;BME280;42646;51.910;7.724;2023-03-26T06:18:15;99752.22;;;8.02;100.00
39265;BME280;42646;51.910;7.724;2023-03-26T06:21:07;99749.44;;;8.03;100.00
39265;BME280;42646;51.910;7.724;2023-03-26T06:23:41;99744.97;;;8.04;100.00
39265;BME280;42646;51.910;7.724;2023-03-26T06:26:28;99740.22;;;8.08;100.00
39265;BME280;42646;51.910;7.724;2023-03-26T06:29:04;99734.94;;;8.08;100.00
39265;BME280;42646;51.910;7.724;2023-03-26T06:31:44;99742.72;;;8.09;100.00
39265;BME280;42646;51.910;7.724;2023-03-26T06:34:31;99732.97;;;8.10;100.00
39265;BME280;42646;51.910;7.724;2023-03-26T06:37:00;99732.69;;;8.13;100.00
39265;BME280;42646;51.910;7.724;2023-03-26T06:39:29;99737.00;;;8.14;100.00
39265;BME280;42646;51.910;7.724;2023-03-26T06:42:11;99733.22;;;8.16;100.00
39265;BME280;42646;51.910;7.724;2023-03-26T06:44:53;99731.41;;;8.17;100.00
39265;BME280;42646;51.910;7.724;2023-03-26T06:47:32;99740.06;;;8.19;100.00
39265;BME280;42646;51.910;7.724;2023-03-26T06:50:54;99733.47;;;8.23;100.00
39265;BME280;42646;51.910;7.724;2023-03-26T06:53:49;99727.06;;;8.25;100.00
39265;BME280;42646;51.910;7.724;2023-03-26T06:56:36;99725.91;;;8.28;100.00
39265;BME280;42646;51.910;7.724;2023-03-26T06:59:23;99726.59;;;8.30;100.00
39265;BME280;42646;51.910;7.724;2023-03-26T07:02:09;99727.97;;;8.34;100.00
39265;BME280;42646;51.910;7.724;2023-03-26T07:05:15;99718.94;;;8.37;100.00
39265;BME280;42646;51.910;7.724;2023-03-26T07:08:12;99716.81;;;8.40;100.00
39265;BME280;42646;51.910;7.724;2023-03-26T07:11:04;99711.06;;;8.45;100.00
39265;BME280;42646;51.910;7.724;2023-03-26T07:13:35;99714.41;;;8.47;100.00
39265;BME280;42646;51.910;7.724;2023-03-26T07:16:23;99708.81;;;8.50;100.00
39265;BME280;42646;51.910;7.724;2023-03-26T07:18:53;99707.69;;;8.52;100.00
39265;BME280;42646;51.910;7.724;2023-03-26T07:21:26;99706.41;;;8.56;100.00
39265;BME280;42646;51.910;7.724;2023-03-26T07:23:55;99706.97;;;8.60;100.00
39265;BME280;42646;51.910;7.724;2023-03-26T07:26:50;99702.16;;;8.64;100.00
39265;BME280;42646;51.910;7.724;2023-03-26T07:29:34;99704.53;;;8.67;100.00
39265;BME280;42646;51.910;7.724;2023-03-26T07:32:20;99697.94;;;8.71;100.00
39265;BME280;42646;51.910;7.724;2023-03-26T07:35:19;99694.16;;;8.73;100.00
39265;BME280;42646;51.910;7.724;2023-03-26T07:38:23;99696.22;;;8.79;100.00
39265;BME280;42646;51.910;7.724;2023-03-26T07:41:33;99696.59;;;8.85;100.00
39265;BME280;42646;51.910;7.724;2023-03-26T07:44:42;99685.00;;;8.86;100.00
39265;BME280;42646;51.910;7.724;2023-03-26T07:47:36;99679.69;;;8.86;100.00
39265;BME280;42646;51.910;7.724;2023-03-26T07:50:30;99686.38;;;8.90;100.00
39265;BME280;42646;51.910;7.724;2023-03-26T07:53:11;99682.41;;;8.94;100.00
39265;BME280;42646;51.910;7.724;2023-03-26T07:55:56;99681.81;;;9.00;100.00
39265;BME280;42646;51.910;7.724;2023-03-26T07:58:49;99677.34;;;9.00;100.00
39265;BME280;42646;51.910;7.724;2023-03-26T08:01:40;99676.06;;;9.04;100.00
39265;BME280;42646;51.910;7.724;2023-03-26T08:04:56;99669.91;;;9.04;100.00
39265;BME280;42646;51.910;7.724;2023-03-26T08:08:10;99663.63;;;9.05;100.00
39265;BME280;42646;51.910;7.724;2023-03-26T08:11:05;99672.94;;;9.09;100.00
39265;BME280;42646;51.910;7.724;2023-03-26T08:13:55;99665.81;;;9.09;100.00
39265;BME280;42646;51.910;7.724;2023-03-26T08:16:30;99666.59;;;9.02;100.00
39265;BME280;42646;51.910;7.724;2023-03-26T08:19:10;99662.94;;;9.03;100.00
39265;BME280;42646;51.910;7.724;2023-03-26T08:21:46;99666.28;;;9.05;100.00
39265;BME280;42646;51.910;7.724;2023-03-26T08:24:19;99664.16;;;9.08;100.00
39265;BME280;42646;51.910;7.724;2023-03-26T08:26:55;99668.47;;;9.09;100.00
39265;BME280;42646;51.910;7.724;2023-03-26T08:29:32;99670.97;;;9.11;100.00
39265;BME280;42646;51.910;7.724;2023-03-26T08:32:12;99658.69;;;9.10;100.00
39265;BME280;42646;51.910;7.724;2023-03-26T08:34:40;99660.34;;;9.11;100.00
39265;BME280;42646;51.910;7.724;2023-03-26T08:37:09;99661.19;;;9.12;100.00
39265;BME280;42646;51.910;7.724;2023-03-26T08:39:37;99661.06;;;9.13;100.00
39265;BME280;42646;51.910;7.724;2023-03-26T08:42:46;99653.75;;;9.15;100.00
39265;BME280;42646;51.910;7.724;2023-03-26T08:45:34;99651.94;;;9.16;100.00
39265;BME280;42646;51.910;7.724;2023-03-26T08:48:47;99656.09;;;9.18;100.00
39265;BME280;42646;51.910;7.724;2023-03-26T08:54:45;99654.81;;;9.22;100.00
39265;BME280;42646;51.910;7.724;2023-03-26T08:57:51;99654.81;;;9.22;100.00
39265;BME280;42646;51.910;7.724;2023-03-26T09:00:39;99646.00;;;9.22;100.00
39265;BME280;42646;51.910;7.724;2023-03-26T09:03:33;99647.00;;;9.21;100.00
39265;BME280;42646;51.910;7.724;2023-03-26T09:06:34;99645.19;;;9.21;100.00
39265;BME280;42646;51.910;7.724;2023-03-26T09:12:39;99644.25;;;9.30;100.00
39265;BME280;42646;51.910;7.724;2023-03-26T09:18:34;99637.91;;;9.23;100.00
39265;BME280;42646;51.910;7.724;2023-03-26T09:24:40;99637.22;;;9.21;100.00
39265;BME280;42646;51.910;7.724;2023-03-26T09:27:32;99630.31;;;9.28;100.00
39265;BME280;42646;51.910;7.724;2023-03-26T09:30:31;99636.06;;;9.24;100.00
39265;BME280;42646;51.910;7.724;2023-03-26T09:33:30;99631.25;;;9.19;100.00
39265;BME280;42646;51.910;7.724;2023-03-26T09:36:20;99633.28;;;9.25;100.00
39265;BME280;42646;51.910;7.724;2023-03-26T09:38:52;99636.19;;;9.14;100.00
39265;BME280;42646;51.910;7.724;2023-03-26T09:41:34;99628.09;;;9.24;100.00
39265;BME280;42646;51.910;7.724;2023-03-26T09:44:38;99633.53;;;9.14;100.00
39265;BME280;42646;51.910;7.724;2023-03-26T09:47:29;99627.06;;;9.17;100.00
39265;BME280;42646;51.910;7.724;2023-03-26T09:50:18;99627.38;;;9.14;100.00
39265;BME280;42646;51.910;7.724;2023-03-26T09:53:02;99628.06;;;9.16;100.00
39265;BME280;42646;51.910;7.724;2023-03-26T09:55:48;99627.06;;;9.17;100.00
39265;BME280;42646;51.910;7.724;2023-03-26T10:01:27;99629.09;;;9.23;100.00
39265;BME280;42646;51.910;7.724;2023-03-26T10:04:11;99625.69;;;9.13;100.00
39265;BME280;42646;51.910;7.724;2023-03-26T10:06:52;99629.22;;;9.13;100.00
39265;BME280;42646;51.910;7.724;2023-03-26T10:09:42;99622.91;;;9.14;100.00
39265;BME280;42646;51.910;7.724;2023-03-26T10:12:22;99623.59;;;9.16;100.00
39265;BME280;42646;51.910;7.724;2023-03-26T10:14:59;99618.66;;;9.21;100.00
39265;BME280;42646;51.910;7.724;2023-03-26T10:17:39;99629.25;;;9.21;100.00
39265;BME280;42646;51.910;7.724;2023-03-26T10:23:30;99629.00;;;9.32;100.00
39265;BME280;42646;51.910;7.724;2023-03-26T10:26:09;99619.91;;;9.35;100.00
39265;BME280;42646;51.910;7.724;2023-03-26T10:28:54;99624.06;;;9.38;100.00
39265;BME280;42646;51.910;7.724;2023-03-26T10:31:42;99620.44;;;9.39;100.00
39265;BME280;42646;51.910;7.724;2023-03-26T10:34:25;99619.72;;;9.36;100.00
39265;BME280;42646;51.910;7.724;2023-03-26T10:37:05;99617.59;;;9.40;100.00
39265;BME280;42646;51.910;7.724;2023-03-26T10:39:53;99612.50;;;9.47;100.00
39265;BME280;42646;51.910;7.724;2023-03-26T10:42:42;99615.56;;;9.60;100.00
39265;BME280;42646;51.910;7.724;2023-03-26T10:45:25;99609.41;;;9.59;100.00
39265;BME280;42646;51.910;7.724;2023-03-26T10:48:10;99618.94;;;9.70;100.00
39265;BME280;42646;51.910;7.724;2023-03-26T10:50:51;99612.28;;;9.66;100.00
39265;BME280;42646;51.910;7.724;2023-03-26T10:53:25;99612.50;;;9.73;100.00
39265;BME280;42646;51.910;7.724;2023-03-26T10:56:00;99614.63;;;9.69;100.00
39265;BME280;42646;51.910;7.724;2023-03-26T10:58:33;99613.47;;;9.72;100.00
39265;BME280;42646;51.910;7.724;2023-03-26T11:01:22;99614.53;;;9.79;100.00
39265;BME280;42646;51.910;7.724;2023-03-26T11:03:54;99616.47;;;9.77;100.00
39265;BME280;42646;51.910;7.724;2023-03-26T11:06:29;99616.00;;;9.81;100.00
39265;BME280;42646;51.910;7.724;2023-03-26T11:09:08;99613.69;;;9.78;100.00
39265;BME280;42646;51.910;7.724;2023-03-26T11:11:46;99609.97;;;9.71;100.00
39265;BME280;42646;51.910;7.724;2023-03-26T11:14:21;99614.63;;;9.69;100.00
39265;BME280;42646;51.910;7.724;2023-03-26T11:17:04;99605.38;;;9.73;100.00
39265;BME280;42646;51.910;7.724;2023-03-26T11:19:46;99608.38;;;9.78;100.00
39265;BME280;42646;51.910;7.724;2023-03-26T11:22:52;99614.53;;;9.87;100.00
39265;BME280;42646;51.910;7.724;2023-03-26T11:25:30;99608.28;;;9.96;100.00
39265;BME280;42646;51.910;7.724;2023-03-26T11:28:09;99610.44;;;10.01;100.00
39265;BME280;42646;51.910;7.724;2023-03-26T11:30:44;99609.31;;;10.03;100.00
39265;BME280;42646;51.910;7.724;2023-03-26T11:33:17;99611.47;;;10.08;100.00
39265;BME280;42646;51.910;7.724;2023-03-26T11:35:48;99609.31;;;10.03;100.00
39265;BME280;42646;51.910;7.724;2023-03-26T11:38:22;99602.63;;;9.99;100.00
39265;BME280;42646;51.910;7.724;2023-03-26T11:40:55;99606.28;;;9.98;100.00
39265;BME280;42646;51.910;7.724;2023-03-26T11:43:44;99609.44;;;9.94;100.00
39265;BME280;42646;51.910;7.724;2023-03-26T11:46:19;99605.28;;;9.91;100.00
39265;BME280;42646;51.910;7.724;2023-03-26T11:48:51;99608.28;;;9.96;100.00
39265;BME280;42646;51.910;7.724;2023-03-26T11:51:26;99600.81;;;10.00;100.00
39265;BME280;42646;51.910;7.724;2023-03-26T11:53:58;99606.50;;;10.13;100.00
39265;BME280;42646;51.910;7.724;2023-03-26T11:56:28;99610.50;;;10.09;100.00
39265;BME280;42646;51.910;7.724;2023-03-26T11:59:00;99598.00;;;10.01;100.00
39265;BME280;42646;51.910;7.724;2023-03-26T12:01:46;99598.34;;;9.72;100.00
39265;BME280;42646;51.910;7.724;2023-03-26T12:04:18;99603.19;;;9.69;100.00
39265;BME280;42646;51.910;7.724;2023-03-26T12:06:52;99598.66;;;9.61;100.00
39265;BME280;42646;51.910;7.724;2023-03-26T12:09:25;99598.34;;;9.64;100.00
39265;BME280;42646;51.910;7.724;2023-03-26T12:11:59;99602.00;;;9.71;100.00
39265;BME280;42646;51.910;7.724;2023-03-26T12:14:31;99601.66;;;9.66;100.00
39265;BME280;42646;51.910;7.724;2023-03-26T12:17:03;99595.50;;;9.66;100.00
39265;BME280;42646;51.910;7.724;2023-03-26T12:19:38;99599.53;;;9.70;100.00
39265;BME280;42646;51.910;7.724;2023-03-26T12:22:26;99604.66;;;9.71;100.00
39265;BME280;42646;51.910;7.724;2023-03-26T12:25:13;99595.94;;;9.79;100.00
39265;BME280;42646;51.910;7.724;2023-03-26T12:27:44;99597.03;;;9.68;100.00
39265;BME280;42646;51.910;7.724;2023-03-26T12:30:19;99598.13;;;9.57;100.00
39265;BME280;42646;51.910;7.724;2023-03-26T12:32:48;99595.75;;;9.46;100.00
39265;BME280;42646;51.910;7.724;2023-03-26T12:35:22;99592.09;;;9.47;100.00
39265;BME280;42646;51.910;7.724;2023-03-26T12:37:51;99585.22;;;9.36;100.00
39265;BME280;42646;51.910;7.724;2023-03-26T12:40:29;99586.28;;;9.44;100.00
39265;BME280;42646;51.910;7.724;2023-03-26T12:42:58;99596.22;;;9.42;100.00
39265;BME280;42646;51.910;7.724;2023-03-26T12:45:52;99593.06;;;9.38;100.00
39265;BME280;42646;51.910;7.724;2023-03-26T12:48:41;99596.22;;;9.42;100.00
39265;BME280;42646;51.910;7.724;2023-03-26T12:51:14;99598.78;;;9.25;100.00
39265;BME280;42646;51.910;7.724;2023-03-26T12:54:00;99595.22;;;9.17;100.00
39265;BME280;42646;51.910;7.724;2023-03-26T12:56:42;99600.38;;;9.18;100.00
39265;BME280;42646;51.910;7.724;2023-03-26T12:59:43;99599.69;;;9.16;100.00
39265;BME280;42646;51.910;7.724;2023-03-26T13:02:46;99599.53;;;9.18;100.00
39265;BME280;42646;51.910;7.724;2023-03-26T13:05:32;99608.50;;;9.17;100.00
39265;BME280;42646;51.910;7.724;2023-03-26T13:08:28;99604.00;;;9.17;100.00
39265;BME280;42646;51.910;7.724;2023-03-26T13:11:02;99605.16;;;9.15;100.00
39265;BME280;42646;51.910;7.724;2023-03-26T13:13:46;99607.81;;;9.15;100.00
39265;BME280;42646;51.910;7.724;2023-03-26T13:16:25;99610.47;;;9.15;100.00
39265;BME280;42646;51.910;7.724;2023-03-26T13:19:00;99609.78;;;9.13;100.00
39265;BME280;42646;51.910;7.724;2023-03-26T13:21:39;99606.28;;;9.12;100.00
39265;BME280;42646;51.910;7.724;2023-03-26T13:24:20;99611.59;;;9.12;100.00
39265;BME280;42646;51.910;7.724;2023-03-26T13:26:59;99603.66;;;9.12;100.00
39265;BME280;42646;51.910;7.724;2023-03-26T13:29:39;99618.72;;;9.12;100.00
39265;BME280;42646;51.910;7.724;2023-03-26T13:32:17;99613.22;;;9.05;100.00
39265;BME280;42646;51.910;7.724;2023-03-26T13:35:01;99614.38;;;9.02;100.00
39265;BME280;42646;51.910;7.724;2023-03-26T13:37:38;99615.34;;;9.01;100.00
39265;BME280;42646;51.910;7.724;2023-03-26T13:40:20;99616.47;;;8.99;100.00
39265;BME280;42646;51.910;7.724;2023-03-26T13:43:04;99613.28;;;8.95;100.00
39265;BME280;42646;51.910;7.724;2023-03-26T13:45:48;99603.84;;;8.93;100.00
39265;BME280;42646;51.910;7.724;2023-03-26T13:48:23;99603.16;;;8.91;100.00
39265;BME280;42646;51.910;7.724;2023-03-26T13:51:00;99596.88;;;8.92;100.00
39265;BME280;42646;51.910;7.724;2023-03-26T13:53:33;99607.16;;;8.95;100.00
39265;BME280;42646;51.910;7.724;2023-03-26T13:56:30;99595.59;;;8.96;100.00
39265;BME280;42646;51.910;7.724;2023-03-26T13:59:05;99599.91;;;8.97;100.00
39265;BME280;42646;51.910;7.724;2023-03-26T14:01:39;99603.22;;;8.99;100.00
39265;BME280;42646;51.910;7.724;2023-03-26T14:04:16;99606.69;;;8.99;100.00
39265;BME280;42646;51.910;7.724;2023-03-26T14:06:51;99608.38;;;9.00;100.00
39265;BME280;42646;51.910;7.724;2023-03-26T14:09:29;99609.50;;;8.98;100.00
39265;BME280;42646;51.910;7.724;2023-03-26T14:12:14;99609.69;;;8.96;100.00
39265;BME280;42646;51.910;7.724;2023-03-26T14:14:51;99614.97;;;8.96;100.00
39265;BME280;42646;51.910;7.724;2023-03-26T14:17:24;99617.94;;;8.93;100.00
39265;BME280;42646;51.910;7.724;2023-03-26T14:23:14;99619.53;;;8.86;100.00
39265;BME280;42646;51.910;7.724;2023-03-26T14:26:00;99620.53;;;8.85;100.00